Time;durP1;ratioP1;P1;durP2;ratioP2;P2;SDS_P1;SDS_P2;PMS_P1;PMS_P2;Temp;Humidity;BMP_temperature;BMP_pressure;BME280_temperature;BME280_humidity;BME280_pressure;Samples;Min_cycle;Max_cycle;Signal;HPM_P1;HPM_P2
2022/04/27 00:01:39;;;;;;;3.38;2.67;;;;;;;;;;4934754;29;20023;-77
2022/04/27 00:04:05;;;;;;;3.30;2.47;;;;;;;;;;4932385;29;20035;-73
2022/04/27 00:06:31;;;;;;;2.85;2.58;;;;;;;;;;4932273;29;20016;-73
2022/04/27 00:08:57;;;;;;;3.75;2.47;;;;;;;;;;4934621;29;20020;-73
2022/04/27 00:11:23;;;;;;;3.33;2.70;;;;;;;;;;4930801;29;20031;-73
2022/04/27 00:13:49;;;;;;;5.10;2.88;;;;;;;;;;4947841;29;20035;-73
2022/04/27 00:16:16;;;;;;;3.10;2.75;;;;;;;;;;4952714;29;20020;-73
2022/04/27 00:18:42;;;;;;;3.25;2.95;;;;;;;;;;4932681;29;20039;-73
2022/04/27 00:21:08;;;;;;;5.07;2.70;;;;;;;;;;4933096;29;20032;-73
2022/04/27 00:23:34;;;;;;;3.17;2.88;;;;;;;;;;4934567;29;20047;-73
2022/04/27 00:26:00;;;;;;;6.00;3.58;;;;;;;;;;4949938;29;20028;-73
2022/04/27 00:28:26;;;;;;;4.10;3.15;;;;;;;;;;4938392;29;20079;-73
2022/04/27 00:30:53;;;;;;;3.80;3.40;;;;;;;;;;4932152;29;20083;-74
2022/04/27 00:33:19;;;;;;;7.20;3.58;;;;;;;;;;4927435;29;20008;-73
2022/04/27 00:35:45;;;;;;;4.80;3.50;;;;;;;;;;4929381;29;20025;-73
2022/04/27 00:38:11;;;;;;;4.05;3.33;;;;;;;;;;4930284;29;20032;-75
2022/04/27 00:40:37;;;;;;;5.07;3.42;;;;;;;;;;4931114;29;20024;-73
2022/04/27 00:43:03;;;;;;;5.57;3.47;;;;;;;;;;4931393;29;20138;-73
2022/04/27 00:45:31;;;;;;;6.93;3.50;;;;;;;;;;4931182;29;20022;-73
2022/04/27 00:47:57;;;;;;;8.95;3.60;;;;;;;;;;4935249;29;20028;-73
2022/04/27 00:50:23;;;;;;;4.70;3.30;;;;;;;;;;4934487;29;20040;-73
2022/04/27 00:52:49;;;;;;;5.03;3.60;;;;;;;;;;4949682;29;20015;-74
2022/04/27 00:55:16;;;;;;;5.22;3.72;;;;;;;;;;4953080;29;20038;-74
2022/04/27 00:57:46;;;;;;;5.85;3.70;;;;;;;;;;4952644;29;20534;-73
2022/04/27 01:00:13;;;;;;;4.95;3.50;;;;;;;;;;4947241;29;20546;-74
2022/04/27 01:02:40;;;;;;;4.70;3.40;;;;;;;;;;4930771;29;20032;-73
2022/04/27 01:05:11;;;;;;;5.38;3.70;;;;;;;;;;4935690;29;20049;-76
2022/04/27 01:07:40;;;;;;;4.43;3.55;;;;;;;;;;4934475;29;20004;-73
2022/04/27 01:10:07;;;;;;;4.05;3.05;;;;;;;;;;4933468;29;20372;-75
2022/04/27 01:12:36;;;;;;;5.72;3.50;;;;;;;;;;4929440;29;20036;-73
2022/04/27 01:15:03;;;;;;;5.28;3.60;;;;;;;;;;4931320;29;20123;-78
2022/04/27 01:17:29;;;;;;;5.00;3.30;;;;;;;;;;4934412;29;20056;-73
2022/04/27 01:19:56;;;;;;;3.60;2.83;;;;;;;;;;4931936;29;20127;-78
2022/04/27 01:22:22;;;;;;;5.20;3.20;;;;;;;;;;4929966;29;20020;-73
2022/04/27 01:24:49;;;;;;;4.50;3.10;;;;;;;;;;4934303;29;20012;-73
2022/04/27 01:27:15;;;;;;;3.22;2.80;;;;;;;;;;4918646;29;20020;-73
2022/04/27 01:29:41;;;;;;;3.13;2.83;;;;;;;;;;4915515;29;20029;-77
2022/04/27 01:32:07;;;;;;;3.97;2.78;;;;;;;;;;4917715;29;20009;-74
2022/04/27 01:34:33;;;;;;;5.68;2.88;;;;;;;;;;4931953;29;20044;-73
2022/04/27 01:38:00;;;;;;;3.50;2.50;;;;;;;;;;4935335;29;20063;-73
2022/04/27 01:39:45;;;;;;;4.55;2.67;;;;;;;;;;4934108;29;20039;-73
2022/04/27 01:42:11;;;;;;;3.28;2.50;;;;;;;;;;4936090;29;20036;-74
2022/04/27 01:44:38;;;;;;;3.05;2.50;;;;;;;;;;4934390;29;20083;-73
2022/04/27 01:47:04;;;;;;;3.20;2.70;;;;;;;;;;4941289;29;20059;-74
2022/04/27 01:49:30;;;;;;;2.97;2.60;;;;;;;;;;4952973;29;20060;-78
2022/04/27 01:54:41;;;;;;;3.88;3.28;;;;;;;;;;4940800;29;20055;-74
2022/04/27 01:57:07;;;;;;;3.83;3.25;;;;;;;;;;4934348;29;20094;-73
2022/04/27 01:59:34;;;;;;;5.75;3.65;;;;;;;;;;4928537;29;20047;-74
2022/04/27 02:02:00;;;;;;;4.28;3.85;;;;;;;;;;4925067;29;20024;-76
2022/04/27 02:04:26;;;;;;;4.80;3.60;;;;;;;;;;4945997;29;20019;-73
2022/04/27 02:06:52;;;;;;;4.63;4.13;;;;;;;;;;4948122;29;20008;-76
2022/04/27 02:09:18;;;;;;;5.20;3.80;;;;;;;;;;4943152;29;20036;-73
2022/04/27 02:11:44;;;;;;;5.70;3.95;;;;;;;;;;4930780;29;20080;-73
2022/04/27 02:14:10;;;;;;;4.80;3.50;;;;;;;;;;4930253;29;20024;-73
2022/04/27 02:16:38;;;;;;;4.85;3.80;;;;;;;;;;4929013;29;20467;-73
2022/04/27 02:19:04;;;;;;;4.47;3.60;;;;;;;;;;4933024;29;20453;-73
2022/04/27 02:21:31;;;;;;;5.15;4.03;;;;;;;;;;4930178;29;20032;-74
2022/04/27 02:23:57;;;;;;;6.13;4.20;;;;;;;;;;4937256;29;20097;-74
2022/04/27 02:26:23;;;;;;;5.40;4.20;;;;;;;;;;4942299;29;20032;-73
2022/04/27 02:28:50;;;;;;;5.80;4.57;;;;;;;;;;4931892;29;20016;-73
2022/04/27 02:31:16;;;;;;;5.22;3.88;;;;;;;;;;4950817;29;20012;-73
2022/04/27 02:33:42;;;;;;;6.10;4.25;;;;;;;;;;4951771;29;20078;-74
2022/04/27 02:36:08;;;;;;;4.03;3.63;;;;;;;;;;4928668;29;20039;-73
2022/04/27 02:38:34;;;;;;;4.25;3.47;;;;;;;;;;4929795;29;20008;-74
2022/04/27 02:41:02;;;;;;;4.38;3.97;;;;;;;;;;4931394;29;20027;-73
2022/04/27 02:43:29;;;;;;;6.50;4.15;;;;;;;;;;4930216;29;20024;-73
2022/04/27 02:45:55;;;;;;;6.75;4.50;;;;;;;;;;4930886;29;20371;-75
2022/04/27 02:48:21;;;;;;;7.18;4.80;;;;;;;;;;4924960;29;20028;-76
2022/04/27 02:53:39;;;;;;;5.72;4.82;;;;;;;;;;4906486;29;20043;-75
2022/04/27 02:56:06;;;;;;;7.55;4.93;;;;;;;;;;4945319;29;20039;-73
2022/04/27 02:58:32;;;;;;;5.30;4.80;;;;;;;;;;4939445;29;20032;-76
2022/04/27 03:00:58;;;;;;;7.10;5.22;;;;;;;;;;4932323;29;20107;-73
2022/04/27 03:03:24;;;;;;;5.75;5.00;;;;;;;;;;4929379;29;20047;-74
2022/04/27 03:05:50;;;;;;;6.85;5.38;;;;;;;;;;4930206;29;20042;-73
2022/04/27 03:08:16;;;;;;;8.32;5.60;;;;;;;;;;4932454;29;20426;-73
2022/04/27 03:10:42;;;;;;;6.93;5.50;;;;;;;;;;4929788;29;20059;-74
2022/04/27 03:13:08;;;;;;;6.95;5.93;;;;;;;;;;4928584;29;20052;-73
2022/04/27 03:15:34;;;;;;;8.18;5.35;;;;;;;;;;4931681;29;20070;-73
2022/04/27 03:18:19;;;;;;;8.32;5.95;;;;;;;;;;4929112;29;20052;-73
2022/04/27 03:20:49;;;;;;;5.65;4.97;;;;;;;;;;4928097;29;20028;-73
2022/04/27 03:23:15;;;;;;;5.50;4.90;;;;;;;;;;4931414;29;20092;-74
2022/04/27 03:25:41;;;;;;;6.25;5.18;;;;;;;;;;4933074;29;20032;-73
2022/04/27 03:28:07;;;;;;;7.88;5.70;;;;;;;;;;4942064;29;20059;-73
2022/04/27 03:30:33;;;;;;;6.95;5.72;;;;;;;;;;4938302;29;20467;-74
2022/04/27 03:33:01;;;;;;;9.63;5.13;;;;;;;;;;4911434;29;20024;-72
2022/04/27 03:35:31;;;;;;;7.00;5.35;;;;;;;;;;4927355;29;20030;-74
2022/04/27 03:37:59;;;;;;;7.18;5.40;;;;;;;;;;4928255;29;20389;-73
2022/04/27 03:40:26;;;;;;;9.93;5.72;;;;;;;;;;4925928;29;20028;-73
2022/04/27 03:42:53;;;;;;;7.15;5.18;;;;;;;;;;4934783;29;20027;-72
2022/04/27 03:45:20;;;;;;;5.80;5.00;;;;;;;;;;4947587;29;20028;-73
2022/04/27 03:47:49;;;;;;;5.57;4.10;;;;;;;;;;4931353;29;20028;-77
2022/04/27 03:50:15;;;;;;;4.80;4.20;;;;;;;;;;4928271;29;20032;-73
2022/04/27 03:52:42;;;;;;;6.88;4.50;;;;;;;;;;4926446;29;20032;-73
2022/04/27 03:55:08;;;;;;;6.60;4.20;;;;;;;;;;4931215;29;20028;-76
2022/04/27 03:57:34;;;;;;;5.78;4.13;;;;;;;;;;4931727;29;20047;-74
2022/04/27 04:00:00;;;;;;;6.28;4.70;;;;;;;;;;4932883;29;20020;-73
2022/04/27 04:02:26;;;;;;;8.50;4.88;;;;;;;;;;4931622;29;20033;-73
2022/04/27 04:04:52;;;;;;;10.98;5.63;;;;;;;;;;4933062;29;20061;-73
2022/04/27 04:07:18;;;;;;;10.75;5.40;;;;;;;;;;4941085;29;20031;-73
2022/04/27 04:09:45;;;;;;;5.93;5.03;;;;;;;;;;4953397;29;20104;-77
2022/04/27 04:12:11;;;;;;;11.32;5.40;;;;;;;;;;4930331;29;20039;-73
2022/04/27 04:14:37;;;;;;;12.45;5.55;;;;;;;;;;4935263;29;20040;-74
2022/04/27 04:17:03;;;;;;;6.53;5.10;;;;;;;;;;4932309;29;20052;-73
2022/04/27 04:19:29;;;;;;;7.60;4.60;;;;;;;;;;4934500;29;20035;-74
2022/04/27 04:21:58;;;;;;;9.30;5.07;;;;;;;;;;4930119;29;20088;-73
2022/04/27 04:24:24;;;;;;;11.23;5.90;;;;;;;;;;4932354;29;20063;-73
2022/04/27 04:29:35;;;;;;;6.35;4.63;;;;;;;;;;4946774;29;20131;-73
2022/04/27 04:32:01;;;;;;;5.40;4.70;;;;;;;;;;4927561;29;20019;-74
2022/04/27 04:34:27;;;;;;;5.95;4.63;;;;;;;;;;4931829;29;20028;-73
2022/04/27 04:36:53;;;;;;;5.68;4.65;;;;;;;;;;4934186;29;20032;-73
2022/04/27 04:39:19;;;;;;;6.18;5.18;;;;;;;;;;4934160;29;20028;-73
2022/04/27 04:41:46;;;;;;;10.75;5.88;;;;;;;;;;4931382;29;20602;-73
2022/04/27 04:44:12;;;;;;;7.72;5.28;;;;;;;;;;4932680;29;20008;-73
2022/04/27 04:46:38;;;;;;;5.90;4.93;;;;;;;;;;4932832;29;20020;-73
2022/04/27 04:49:04;;;;;;;7.18;4.90;;;;;;;;;;4930054;29;20028;-73
2022/04/27 04:51:30;;;;;;;7.60;4.68;;;;;;;;;;4930726;29;20028;-74
2022/04/27 04:53:56;;;;;;;8.98;5.03;;;;;;;;;;4932305;29;20044;-78
2022/04/27 04:56:22;;;;;;;7.45;5.45;;;;;;;;;;4928013;29;20598;-73
2022/04/27 04:58:48;;;;;;;7.53;5.97;;;;;;;;;;4935015;29;20028;-72
2022/04/27 05:01:14;;;;;;;7.63;5.93;;;;;;;;;;4931813;29;20050;-73
2022/04/27 05:03:40;;;;;;;5.97;5.38;;;;;;;;;;4929196;29;20040;-76
2022/04/27 05:06:06;;;;;;;6.38;5.00;;;;;;;;;;4931815;29;20032;-73
2022/04/27 05:08:32;;;;;;;8.15;5.63;;;;;;;;;;4933136;29;20005;-74
2022/04/27 05:10:58;;;;;;;7.78;5.53;;;;;;;;;;4934605;29;20052;-73
2022/04/27 05:13:26;;;;;;;8.55;5.47;;;;;;;;;;4939323;29;20068;-78
2022/04/27 05:15:52;;;;;;;10.00;5.80;;;;;;;;;;4938611;29;20025;-74
2022/04/27 05:18:21;;;;;;;6.20;5.60;;;;;;;;;;4936735;29;20028;-75
2022/04/27 05:20:47;;;;;;;8.20;6.03;;;;;;;;;;4938884;29;20111;-76
2022/04/27 05:23:13;;;;;;;9.50;7.57;;;;;;;;;;4935062;29;20028;-73
2022/04/27 05:25:39;;;;;;;9.07;7.18;;;;;;;;;;4933161;29;20024;-75
2022/04/27 05:34:11;;;;;;;8.57;5.97;;;;;;;;;;4810615;29;20050;-75
2022/04/27 05:36:37;;;;;;;7.63;5.82;;;;;;;;;;4807221;29;20035;-75
2022/04/27 05:39:03;;;;;;;6.93;5.90;;;;;;;;;;4809014;29;20059;-76
2022/04/27 05:41:29;;;;;;;6.65;5.75;;;;;;;;;;4805211;29;20065;-75
2022/04/27 05:43:55;;;;;;;7.28;5.60;;;;;;;;;;4810073;29;20038;-75
2022/04/27 05:46:21;;;;;;;10.23;7.00;;;;;;;;;;4795413;29;20050;-75
2022/04/27 05:48:47;;;;;;;10.88;8.95;;;;;;;;;;4804995;29;20059;-76
2022/04/27 05:51:13;;;;;;;12.65;9.77;;;;;;;;;;4803345;29;20493;-76
2022/04/27 05:53:42;;;;;;;10.77;7.50;;;;;;;;;;4798811;29;20042;-76
2022/04/27 05:56:12;;;;;;;9.60;6.90;;;;;;;;;;4802888;29;20062;-76
2022/04/27 05:58:39;;;;;;;9.65;6.35;;;;;;;;;;4803307;29;20108;-76
2022/04/27 06:01:05;;;;;;;7.22;6.05;;;;;;;;;;4803388;29;20096;-76
2022/04/27 06:03:31;;;;;;;9.00;6.38;;;;;;;;;;4804815;29;20483;-74
2022/04/27 06:05:57;;;;;;;7.68;6.72;;;;;;;;;;4893279;29;20060;-78
2022/04/27 06:08:23;;;;;;;8.98;7.07;;;;;;;;;;4938102;29;20063;-78
2022/04/27 06:10:49;;;;;;;8.45;7.10;;;;;;;;;;4907154;29;20032;-77
2022/04/27 06:13:17;;;;;;;11.50;6.97;;;;;;;;;;4919838;29;20107;-76
2022/04/27 06:15:43;;;;;;;12.18;7.10;;;;;;;;;;4924047;29;20409;-76
2022/04/27 06:18:09;;;;;;;10.55;7.40;;;;;;;;;;4913161;29;20048;-76
2022/04/27 06:20:35;;;;;;;8.43;7.30;;;;;;;;;;4914247;29;20043;-75
2022/04/27 06:23:02;;;;;;;8.23;7.18;;;;;;;;;;4919665;29;20016;-74
2022/04/27 06:25:30;;;;;;;9.00;6.85;;;;;;;;;;4920714;29;20443;-74
2022/04/27 06:27:56;;;;;;;8.85;6.85;;;;;;;;;;4921904;29;20541;-73
2022/04/27 06:30:24;;;;;;;248.52;168.57;;;;;;;;;;4925495;29;20086;-78
2022/04/27 06:32:51;;;;;;;44.65;26.55;;;;;;;;;;4922418;29;20075;-74
2022/04/27 06:43:05;;;;;;;15.23;12.63;;;;;;;;;;5067595;23;20040;-78
2022/04/27 06:45:36;;;;;;;15.60;12.38;;;;;;;;;;4906638;29;20028;-77
2022/04/27 06:50:46;;;;;;;18.75;10.55;;;;;;;;;;5269016;23;20056;-76
2022/04/27 06:53:12;;;;;;;12.77;9.20;;;;;;;;;;4916557;29;20087;-74
2022/04/27 06:55:38;;;;;;;9.93;8.90;;;;;;;;;;4921639;29;20040;-75
2022/04/27 06:58:04;;;;;;;13.80;9.70;;;;;;;;;;4897360;29;20521;-73
2022/04/27 07:00:33;;;;;;;10.00;8.93;;;;;;;;;;4899552;29;20484;-74
2022/04/27 07:02:59;;;;;;;12.05;8.85;;;;;;;;;;4916615;29;20067;-73
2022/04/27 07:05:26;;;;;;;14.40;10.35;;;;;;;;;;4914640;29;20028;-74
2022/04/27 07:07:52;;;;;;;15.57;10.55;;;;;;;;;;4914587;29;20050;-73
2022/04/27 07:10:19;;;;;;;13.73;9.95;;;;;;;;;;4916740;29;20088;-74
2022/04/27 07:12:48;;;;;;;13.75;10.68;;;;;;;;;;4915526;29;20016;-73
2022/04/27 07:15:15;;;;;;;14.88;9.38;;;;;;;;;;4897457;29;20092;-74
2022/04/27 07:17:41;;;;;;;14.68;9.88;;;;;;;;;;4897917;29;20407;-73
2022/04/27 07:20:07;;;;;;;12.05;10.50;;;;;;;;;;4897758;29;20040;-73
2022/04/27 07:22:33;;;;;;;12.50;10.23;;;;;;;;;;4894869;29;20096;-71
2022/04/27 07:25:00;;;;;;;18.10;11.82;;;;;;;;;;4897602;29;20076;-74
2022/04/27 07:27:31;;;;;;;13.80;11.00;;;;;;;;;;4880101;29;20033;-74
2022/04/27 07:29:59;;;;;;;13.52;11.15;;;;;;;;;;4881468;29;20043;-74
2022/04/27 07:32:26;;;;;;;13.75;10.65;;;;;;;;;;4885533;29;20056;-74
2022/04/27 07:34:52;;;;;;;16.98;10.73;;;;;;;;;;4901043;29;20029;-74
2022/04/27 07:42:59;;;;;;;11.95;8.60;;;;;;;;;;4988173;23;20463;-76
2022/04/27 07:45:37;;;;;;;11.95;9.15;;;;;;;;;;4906880;29;20032;-78
2022/04/27 07:48:20;;;;;;;11.55;9.45;;;;;;;;;;4903068;29;20044;-77
2022/04/27 07:50:46;;;;;;;15.50;9.23;;;;;;;;;;4906517;29;20024;-77
2022/04/27 07:53:12;;;;;;;13.30;9.32;;;;;;;;;;4889604;29;20096;-78
2022/04/27 07:55:38;;;;;;;20.45;11.60;;;;;;;;;;4890689;29;20024;-77
2022/04/27 07:58:04;;;;;;;13.90;9.40;;;;;;;;;;4923082;29;20036;-77
2022/04/27 08:00:31;;;;;;;11.60;8.00;;;;;;;;;;4912566;29;20065;-78
2022/04/27 08:02:57;;;;;;;9.77;7.63;;;;;;;;;;4889405;29;20123;-77
2022/04/27 08:05:23;;;;;;;12.05;8.15;;;;;;;;;;4890620;29;20395;-77
2022/04/27 08:07:49;;;;;;;9.18;7.45;;;;;;;;;;4891543;29;20031;-77
2022/04/27 08:10:16;;;;;;;17.85;9.15;;;;;;;;;;4908223;29;20021;-77
2022/04/27 08:12:46;;;;;;;9.07;5.95;;;;;;;;;;4908610;29;20036;-78
2022/04/27 08:15:15;;;;;;;7.53;5.85;;;;;;;;;;4908553;29;20023;-78
2022/04/27 08:17:51;;;;;;;7.30;5.00;;;;;;;;;;4908039;29;20483;-77
2022/04/27 08:26:18;;;;;;;9.05;5.93;;;;;;;;;;4957475;23;20115;-83
2022/04/27 08:28:45;;;;;;;8.68;5.68;;;;;;;;;;4904739;29;20042;-79
2022/04/27 08:31:12;;;;;;;7.75;5.80;;;;;;;;;;4906961;29;20032;-82
2022/04/27 08:33:38;;;;;;;9.10;6.40;;;;;;;;;;4914287;29;20028;-80
2022/04/27 08:36:14;;;;;;;8.65;6.40;;;;;;;;;;4906843;29;20044;-80
2022/04/27 08:39:05;;;;;;;8.05;5.82;;;;;;;;;;4930407;29;20046;-78
2022/04/27 08:41:34;;;;;;;7.20;4.90;;;;;;;;;;4925272;29;20048;-83
2022/04/27 08:44:00;;;;;;;8.02;5.60;;;;;;;;;;4933414;29;20068;-86
2022/04/27 08:46:28;;;;;;;13.85;5.30;;;;;;;;;;4938235;29;20073;-77
2022/04/27 08:49:13;;;;;;;9.25;4.80;;;;;;;;;;4938386;29;20036;-78
2022/04/27 08:52:00;;;;;;;9.65;4.85;;;;;;;;;;4937784;29;20019;-77
2022/04/27 08:54:26;;;;;;;6.60;3.92;;;;;;;;;;4933235;29;20031;-83
2022/04/27 08:56:53;;;;;;;10.25;4.70;;;;;;;;;;4907320;29;20048;-85
2022/04/27 08:59:19;;;;;;;9.55;4.70;;;;;;;;;;4915179;29;20103;-82
2022/04/27 09:01:45;;;;;;;17.58;5.35;;;;;;;;;;4918599;29;20042;-89
2022/04/27 09:04:14;;;;;;;10.90;5.43;;;;;;;;;;4903484;29;20040;-79
2022/04/27 09:06:54;;;;;;;5.05;3.95;;;;;;;;;;4926960;29;20064;-85
2022/04/27 09:12:44;;;;;;;11.70;5.03;;;;;;;;;;4923824;29;20060;-86
2022/04/27 09:22:01;;;;;;;9.63;4.38;;;;;;;;;;4897692;29;20086;-85
2022/04/27 09:24:28;;;;;;;11.13;4.47;;;;;;;;;;4884426;29;20152;-81
2022/04/27 09:27:03;;;;;;;11.75;5.07;;;;;;;;;;4874843;29;20055;-86
2022/04/27 09:29:29;;;;;;;16.45;4.72;;;;;;;;;;4876346;29;20033;-82
2022/04/27 09:31:57;;;;;;;7.95;4.38;;;;;;;;;;4872464;29;20041;-86
2022/04/27 09:34:32;;;;;;;17.25;5.93;;;;;;;;;;4881575;29;20043;-87
2022/04/27 09:37:16;;;;;;;7.50;5.00;;;;;;;;;;4882252;29;20124;-87
2022/04/27 09:39:42;;;;;;;7.88;4.90;;;;;;;;;;4874467;29;20031;-89
2022/04/27 09:42:12;;;;;;;7.85;5.45;;;;;;;;;;4876736;29;20384;-90
2022/04/27 09:44:39;;;;;;;7.68;6.03;;;;;;;;;;4881059;29;20037;-87
2022/04/27 09:47:05;;;;;;;11.27;5.75;;;;;;;;;;4877230;29;20525;-90
2022/04/27 09:49:32;;;;;;;8.93;5.53;;;;;;;;;;4904018;29;20040;-85
2022/04/27 09:52:00;;;;;;;9.05;5.22;;;;;;;;;;4898051;29;20460;-87
2022/04/27 09:54:30;;;;;;;11.50;5.85;;;;;;;;;;4915402;29;20064;-83
2022/04/27 09:56:58;;;;;;;19.45;6.20;;;;;;;;;;4899778;29;20024;-77
2022/04/27 09:59:29;;;;;;;10.63;6.03;;;;;;;;;;4913028;29;20027;-77
2022/04/27 10:01:57;;;;;;;12.38;6.65;;;;;;;;;;4928437;29;20040;-85
2022/04/27 10:04:25;;;;;;;10.35;5.90;;;;;;;;;;4900989;29;20115;-87
2022/04/27 10:06:56;;;;;;;7.10;5.78;;;;;;;;;;4893282;29;20119;-87
2022/04/27 10:09:22;;;;;;;7.43;5.55;;;;;;;;;;4898926;29;20084;-78
2022/04/27 10:11:48;;;;;;;8.32;5.63;;;;;;;;;;4917013;29;20039;-77
2022/04/27 10:14:14;;;;;;;8.65;5.25;;;;;;;;;;4915715;29;20032;-79
2022/04/27 10:16:41;;;;;;;7.97;5.78;;;;;;;;;;4916857;29;20055;-79
2022/04/27 10:19:12;;;;;;;8.63;5.07;;;;;;;;;;4916221;29;20080;-85
2022/04/27 10:21:57;;;;;;;6.45;5.75;;;;;;;;;;4915105;29;20042;-74
2022/04/27 10:24:41;;;;;;;9.93;6.10;;;;;;;;;;4914548;29;20413;-74
2022/04/27 10:27:23;;;;;;;7.93;6.15;;;;;;;;;;4916688;29;20028;-75
2022/04/27 10:29:58;;;;;;;15.75;7.85;;;;;;;;;;4915226;29;20031;-78
2022/04/27 10:32:42;;;;;;;45.03;16.13;;;;;;;;;;4916267;29;20179;-75
2022/04/27 10:35:29;;;;;;;14.75;6.53;;;;;;;;;;4916136;29;20510;-78
2022/04/27 10:37:59;;;;;;;20.02;8.20;;;;;;;;;;4914413;29;20448;-74
2022/04/27 10:40:40;;;;;;;10.40;5.78;;;;;;;;;;4914119;29;20556;-74
2022/04/27 10:43:09;;;;;;;10.65;6.20;;;;;;;;;;4916070;29;20505;-83
2022/04/27 10:45:37;;;;;;;8.02;5.75;;;;;;;;;;4915785;29;20165;-75
2022/04/27 10:48:06;;;;;;;7.05;5.57;;;;;;;;;;4915178;29;20024;-76
2022/04/27 10:50:36;;;;;;;11.68;5.38;;;;;;;;;;4916482;29;20099;-83
2022/04/27 10:53:15;;;;;;;13.73;8.98;;;;;;;;;;4910358;29;20028;-75
2022/04/27 10:55:42;;;;;;;10.05;4.82;;;;;;;;;;4915016;29;20032;-74
2022/04/27 10:58:12;;;;;;;9.88;6.25;;;;;;;;;;4915984;29;20024;-74
2022/04/27 11:01:02;;;;;;;15.35;6.25;;;;;;;;;;4915074;29;20390;-76
2022/04/27 11:03:35;;;;;;;9.15;5.70;;;;;;;;;;4916572;29;20504;-75
2022/04/27 11:06:11;;;;;;;7.57;5.47;;;;;;;;;;4911115;29;20020;-76
2022/04/27 11:08:56;;;;;;;9.35;4.97;;;;;;;;;;4917834;29;20034;-74
2022/04/27 11:11:25;;;;;;;9.57;5.30;;;;;;;;;;4916468;29;20486;-78
2022/04/27 11:13:52;;;;;;;9.77;5.57;;;;;;;;;;4900241;29;20028;-86
2022/04/27 11:16:18;;;;;;;9.15;5.72;;;;;;;;;;4894900;29;20029;-88
2022/04/27 11:18:50;;;;;;;9.15;5.68;;;;;;;;;;4919628;29;20031;-90
2022/04/27 11:21:22;;;;;;;8.82;5.30;;;;;;;;;;4901846;29;20170;-87
2022/04/27 11:23:48;;;;;;;7.63;5.40;;;;;;;;;;4899938;29;20162;-84
2022/04/27 11:26:14;;;;;;;9.15;5.80;;;;;;;;;;4899268;29;20067;-86
2022/04/27 11:28:44;;;;;;;7.50;5.10;;;;;;;;;;4901637;29;20032;-85
2022/04/27 11:31:11;;;;;;;8.25;5.28;;;;;;;;;;4915779;29;20070;-75
2022/04/27 11:33:40;;;;;;;6.85;5.35;;;;;;;;;;4917965;29;20028;-84
2022/04/27 11:36:21;;;;;;;8.25;4.68;;;;;;;;;;4915414;29;20036;-76
2022/04/27 11:38:49;;;;;;;11.23;4.90;;;;;;;;;;4914165;29;20070;-84
2022/04/27 11:41:20;;;;;;;8.77;4.50;;;;;;;;;;4917889;29;20166;-86
2022/04/27 11:43:46;;;;;;;8.63;4.90;;;;;;;;;;4920559;29;20046;-89
2022/04/27 11:46:13;;;;;;;9.30;5.03;;;;;;;;;;4920511;29;20056;-91
2022/04/27 11:48:39;;;;;;;8.20;5.28;;;;;;;;;;4899913;29;20068;-75
2022/04/27 11:51:08;;;;;;;7.72;5.57;;;;;;;;;;4915530;29;20028;-75
2022/04/27 11:53:47;;;;;;;8.75;5.35;;;;;;;;;;4917814;29;20112;-78
2022/04/27 11:56:17;;;;;;;9.25;5.32;;;;;;;;;;4919084;29;20091;-89
2022/04/27 11:58:45;;;;;;;8.13;5.00;;;;;;;;;;4906383;29;20033;-89
2022/04/27 12:01:11;;;;;;;9.07;5.53;;;;;;;;;;4899472;29;20055;-88
2022/04/27 12:03:43;;;;;;;8.68;5.70;;;;;;;;;;4898199;29;20036;-84
2022/04/27 12:06:10;;;;;;;8.50;5.00;;;;;;;;;;4917511;29;20032;-80
2022/04/27 12:08:42;;;;;;;9.32;4.72;;;;;;;;;;4908210;29;20057;-74
2022/04/27 12:11:08;;;;;;;9.38;4.72;;;;;;;;;;4915473;29;20080;-83
2022/04/27 12:13:35;;;;;;;8.55;4.75;;;;;;;;;;4898713;29;20032;-75
2022/04/27 12:16:01;;;;;;;6.22;5.03;;;;;;;;;;4915442;29;20024;-85
2022/04/27 12:18:28;;;;;;;9.30;5.40;;;;;;;;;;4913499;29;20024;-85
2022/04/27 12:20:57;;;;;;;8.93;5.10;;;;;;;;;;4916290;29;20506;-87
2022/04/27 12:23:35;;;;;;;9.48;4.53;;;;;;;;;;4902076;29;20459;-89
2022/04/27 12:26:01;;;;;;;7.32;5.15;;;;;;;;;;4901803;29;20099;-83
2022/04/27 12:28:32;;;;;;;6.35;4.70;;;;;;;;;;4899205;29;20036;-86
2022/04/27 12:31:06;;;;;;;10.73;5.20;;;;;;;;;;4917705;29;20029;-87
2022/04/27 12:33:43;;;;;;;5.82;4.78;;;;;;;;;;4900393;29;20036;-92
2022/04/27 12:39:02;;;;;;;6.60;4.38;;;;;;;;;;4917635;29;20379;-78
2022/04/27 12:41:31;;;;;;;6.22;4.00;;;;;;;;;;4912704;29;20047;-77
2022/04/27 12:44:11;;;;;;;9.52;4.03;;;;;;;;;;4918860;29;20534;-81
2022/04/27 12:46:38;;;;;;;10.63;4.30;;;;;;;;;;4919057;29;20032;-77
2022/04/27 12:49:08;;;;;;;34.95;26.70;;;;;;;;;;4921758;29;20024;-76
2022/04/27 12:51:35;;;;;;;6.57;4.47;;;;;;;;;;4919058;29;20032;-78
2022/04/27 12:54:04;;;;;;;6.32;4.60;;;;;;;;;;4918955;29;20052;-82
2022/04/27 12:56:34;;;;;;;8.20;5.30;;;;;;;;;;4918847;29;20783;-77
2022/04/27 12:59:05;;;;;;;9.38;5.03;;;;;;;;;;4918950;29;20123;-77
2022/04/27 13:01:31;;;;;;;6.70;5.32;;;;;;;;;;4918804;29;20037;-78
2022/04/27 13:03:57;;;;;;;6.90;5.13;;;;;;;;;;4918844;29;20431;-77
2022/04/27 13:06:23;;;;;;;9.45;5.30;;;;;;;;;;4918684;29;20028;-76
2022/04/27 13:08:54;;;;;;;7.70;5.10;;;;;;;;;;4918753;29;20024;-82
2022/04/27 13:14:05;;;;;;;9.10;5.13;;;;;;;;;;4918475;29;20123;-76
2022/04/27 13:16:31;;;;;;;12.43;5.35;;;;;;;;;;4919838;29;20040;-79
2022/04/27 13:18:57;;;;;;;6.85;4.70;;;;;;;;;;4937546;29;20020;-83
2022/04/27 13:21:23;;;;;;;7.53;5.20;;;;;;;;;;4933653;29;20047;-77
2022/04/27 13:23:52;;;;;;;5.72;4.43;;;;;;;;;;4911957;29;20163;-80
2022/04/27 13:26:18;;;;;;;7.50;4.22;;;;;;;;;;4909804;29;20063;-78
2022/04/27 13:28:44;;;;;;;5.85;3.80;;;;;;;;;;4905927;29;20029;-81
2022/04/27 13:31:10;;;;;;;6.53;4.10;;;;;;;;;;4884576;29;20071;-83
2022/04/27 13:33:36;;;;;;;8.27;4.22;;;;;;;;;;4905545;29;20020;-77
2022/04/27 13:36:02;;;;;;;15.50;4.80;;;;;;;;;;4897703;29;20039;-79
2022/04/27 13:38:29;;;;;;;8.75;4.00;;;;;;;;;;4901688;29;20024;-80
2022/04/27 13:41:01;;;;;;;10.32;4.65;;;;;;;;;;4906300;29;20124;-77
2022/04/27 13:43:27;;;;;;;6.30;4.28;;;;;;;;;;4897621;29;20092;-81
2022/04/27 13:45:53;;;;;;;6.55;4.20;;;;;;;;;;4897785;29;20024;-78
2022/04/27 13:48:19;;;;;;;6.32;4.38;;;;;;;;;;4897427;29;20040;-83
2022/04/27 13:50:49;;;;;;;9.43;5.05;;;;;;;;;;4897350;29;20031;-77
2022/04/27 13:53:16;;;;;;;6.47;4.07;;;;;;;;;;4905553;29;20021;-76
2022/04/27 13:55:42;;;;;;;7.82;4.85;;;;;;;;;;4905547;29;20405;-76
2022/04/27 13:58:09;;;;;;;11.18;6.03;;;;;;;;;;4901283;29;20020;-78
2022/04/27 14:00:35;;;;;;;10.38;8.25;;;;;;;;;;4905203;29;20478;-76
2022/04/27 14:03:01;;;;;;;11.35;10.15;;;;;;;;;;4901518;29;20423;-79
2022/04/27 14:05:27;;;;;;;13.90;12.30;;;;;;;;;;4898897;29;20028;-76
2022/04/27 14:07:54;;;;;;;14.25;12.43;;;;;;;;;;4906062;29;20103;-76
2022/04/27 14:10:21;;;;;;;13.68;12.27;;;;;;;;;;4898737;29;20027;-76
2022/04/27 14:15:34;;;;;;;12.35;11.05;;;;;;;;;;4906424;29;20085;-78
2022/04/27 14:18:15;;;;;;;13.50;12.10;;;;;;;;;;4900550;29;20371;-80
2022/04/27 14:20:46;;;;;;;15.57;13.23;;;;;;;;;;4917395;29;20036;-80
2022/04/27 14:23:13;;;;;;;18.08;12.73;;;;;;;;;;4917507;29;20391;-81
2022/04/27 14:25:43;;;;;;;14.88;13.38;;;;;;;;;;4918018;29;20044;-80
2022/04/27 14:28:10;;;;;;;14.88;13.18;;;;;;;;;;4917772;29;20036;-79
2022/04/27 14:30:36;;;;;;;14.20;12.43;;;;;;;;;;4918421;29;20048;-77
2022/04/27 14:33:03;;;;;;;16.67;13.80;;;;;;;;;;4917929;29;20021;-76
2022/04/27 14:35:29;;;;;;;17.38;13.75;;;;;;;;;;4917918;29;20435;-77
2022/04/27 14:37:55;;;;;;;16.52;14.82;;;;;;;;;;4917136;29;20537;-77
2022/04/27 14:40:21;;;;;;;15.48;13.80;;;;;;;;;;4917558;29;20541;-77
2022/04/27 14:42:47;;;;;;;18.17;13.50;;;;;;;;;;4917974;29;20036;-78
2022/04/27 14:45:14;;;;;;;16.75;14.45;;;;;;;;;;4918463;29;20048;-77
2022/04/27 14:47:40;;;;;;;18.67;16.77;;;;;;;;;;4918036;29;20486;-76
2022/04/27 14:50:07;;;;;;;20.13;17.98;;;;;;;;;;4919006;29;20123;-77
2022/04/27 14:52:33;;;;;;;20.70;18.52;;;;;;;;;;4919191;29;20025;-77
2022/04/27 14:55:01;;;;;;;22.60;20.20;;;;;;;;;;4918452;29;20111;-77
2022/04/27 14:57:27;;;;;;;22.00;19.83;;;;;;;;;;4918891;29;20027;-78
2022/04/27 14:59:54;;;;;;;24.17;21.23;;;;;;;;;;4902314;29;20028;-76
2022/04/27 15:02:23;;;;;;;23.95;20.70;;;;;;;;;;4911352;29;20475;-76
2022/04/27 15:04:49;;;;;;;27.35;23.08;;;;;;;;;;4918536;29;20423;-78
2022/04/27 15:07:15;;;;;;;23.75;21.25;;;;;;;;;;4918843;29;20043;-77
2022/04/27 15:09:41;;;;;;;24.85;22.30;;;;;;;;;;4917857;29;20123;-76
2022/04/27 15:12:07;;;;;;;24.38;21.75;;;;;;;;;;4918195;29;20483;-76
2022/04/27 15:14:34;;;;;;;25.23;22.63;;;;;;;;;;4901742;29;20388;-77
2022/04/27 15:17:00;;;;;;;24.55;22.13;;;;;;;;;;4919193;29;20024;-76
2022/04/27 15:19:26;;;;;;;25.45;22.90;;;;;;;;;;4918363;29;20470;-76
2022/04/27 15:24:37;;;;;;;24.92;22.50;;;;;;;;;;4918374;29;20169;-77
2022/04/27 15:27:04;;;;;;;26.20;23.52;;;;;;;;;;4902075;29;20379;-77
2022/04/27 15:29:31;;;;;;;25.88;23.38;;;;;;;;;;4918756;29;20505;-78
2022/04/27 15:31:58;;;;;;;27.35;24.42;;;;;;;;;;4899580;29;20111;-78
2022/04/27 15:34:24;;;;;;;26.23;23.73;;;;;;;;;;4899947;29;20021;-76
2022/04/27 15:36:50;;;;;;;27.00;24.20;;;;;;;;;;4900563;29;20398;-76
2022/04/27 15:39:16;;;;;;;23.83;21.42;;;;;;;;;;4899424;29;20088;-75